Time;durP1;ratioP1;P1;durP2;ratioP2;P2;SDS_P1;SDS_P2;PMS_P1;PMS_P2;Temp;Humidity;BMP_temperature;BMP_pressure;BME280_temperature;BME280_humidity;BME280_pressure;Samples;Min_cycle;Max_cycle;Signal;HPM_P1;HPM_P2
2021/12/30 00:01:35;;;;;;;1.42;1.10;;;20.10;47.10;;;;;;6202147;28;20052;-73
2021/12/30 00:04:35;;;;;;;1.00;0.90;;;20.10;47.10;;;;;;6218671;28;20026;-73
2021/12/30 00:07:36;;;;;;;1.92;1.23;;;20.10;47.10;;;;;;6215285;28;20025;-73
2021/12/30 00:10:38;;;;;;;1.30;1.00;;;20.10;47.80;;;;;;6219898;28;20473;-73
2021/12/30 00:13:44;;;;;;;1.67;1.10;;;20.10;47.10;;;;;;6220412;28;20045;-73
2021/12/30 00:16:44;;;;;;;1.20;1.00;;;20.10;47.10;;;;;;6219908;28;20084;-73
2021/12/30 00:19:45;;;;;;;2.10;1.35;;;20.10;47.10;;;;;;6219623;28;20076;-73
2021/12/30 00:22:46;;;;;;;1.20;1.00;;;20.10;47.10;;;;;;6219430;28;20033;-73
2021/12/30 00:25:48;;;;;;;1.00;0.88;;;20.10;47.10;;;;;;6219572;28;20026;-73
2021/12/30 00:28:48;;;;;;;1.58;1.30;;;20.10;47.10;;;;;;6201750;28;20034;-73
2021/12/30 00:31:49;;;;;;;1.30;1.10;;;20.10;47.10;;;;;;6204487;28;20026;-73
2021/12/30 00:34:49;;;;;;;1.20;1.10;;;20.10;47.10;;;;;;6196228;28;20531;-73
2021/12/30 00:37:50;;;;;;;2.22;0.75;;;20.10;47.10;;;;;;6219428;28;20065;-73
2021/12/30 00:40:51;;;;;;;1.33;1.00;;;20.10;47.10;;;;;;6219065;28;20022;-73
2021/12/30 00:43:51;;;;;;;1.27;1.05;;;20.10;47.10;;;;;;6219397;28;20017;-73
2021/12/30 00:46:52;;;;;;;1.15;1.02;;;20.10;47.10;;;;;;6217485;28;20080;-73
2021/12/30 00:49:53;;;;;;;1.30;1.00;;;20.10;47.10;;;;;;6219160;28;20392;-73
2021/12/30 00:52:54;;;;;;;1.27;1.00;;;20.10;47.10;;;;;;6219002;28;20037;-73
2021/12/30 00:55:54;;;;;;;1.30;1.20;;;20.10;47.10;;;;;;6219014;28;20030;-73
2021/12/30 00:58:55;;;;;;;2.40;1.30;;;20.10;47.10;;;;;;6218536;28;20370;-73
2021/12/30 01:01:56;;;;;;;1.38;1.17;;;20.10;47.10;;;;;;6209265;28;20050;-73
2021/12/30 01:04:56;;;;;;;1.23;1.08;;;20.10;47.10;;;;;;6194888;28;20027;-73
2021/12/30 01:07:57;;;;;;;1.20;1.00;;;20.10;47.10;;;;;;6221257;28;20034;-73
2021/12/30 01:10:57;;;;;;;1.58;1.23;;;20.10;47.10;;;;;;6218973;28;20033;-73
2021/12/30 01:14:09;;;;;;;1.52;1.27;;;20.10;47.20;;;;;;6223876;28;20452;-73
2021/12/30 01:17:22;;;;;;;1.00;0.90;;;20.00;47.10;;;;;;6223728;28;20063;-73
2021/12/30 01:20:23;;;;;;;1.52;1.20;;;20.00;47.10;;;;;;6214610;28;20048;-73
2021/12/30 01:23:25;;;;;;;1.20;1.10;;;20.00;47.00;;;;;;6223939;28;20030;-73
2021/12/30 01:26:26;;;;;;;1.40;1.10;;;20.10;47.10;;;;;;6223343;28;20489;-73
2021/12/30 01:29:29;;;;;;;1.55;1.10;;;20.10;47.20;;;;;;6205751;28;20056;-73
2021/12/30 01:32:29;;;;;;;1.15;1.02;;;20.00;47.00;;;;;;6199898;28;20048;-73
2021/12/30 01:35:30;;;;;;;1.67;1.10;;;20.00;47.00;;;;;;6205874;28;20025;-73
2021/12/30 01:38:31;;;;;;;1.23;1.02;;;20.00;47.00;;;;;;6223191;28;20033;-73
2021/12/30 01:41:31;;;;;;;1.27;1.02;;;20.00;47.10;;;;;;6223346;28;20033;-73
2021/12/30 01:44:33;;;;;;;1.05;0.82;;;20.10;47.10;;;;;;6223514;28;20300;-72
2021/12/30 01:47:34;;;;;;;1.15;1.00;;;20.00;47.10;;;;;;6223202;28;20112;-73
2021/12/30 01:50:35;;;;;;;1.42;1.10;;;20.00;47.10;;;;;;6222761;28;20333;-73
2021/12/30 01:53:37;;;;;;;1.75;1.13;;;20.10;47.20;;;;;;6216702;28;20034;-73
2021/12/30 01:56:37;;;;;;;1.33;1.05;;;20.00;47.10;;;;;;6207870;28;20034;-73
2021/12/30 01:59:38;;;;;;;0.82;0.77;;;20.00;47.10;;;;;;6198995;28;20347;-73
2021/12/30 02:02:39;;;;;;;1.10;1.00;;;20.00;47.10;;;;;;6218633;28;20057;-73
2021/12/30 02:05:41;;;;;;;1.35;0.95;;;20.00;47.10;;;;;;6213832;28;20065;-73
2021/12/30 02:08:42;;;;;;;1.25;1.10;;;20.00;47.10;;;;;;6197102;28;20018;-73
2021/12/30 02:11:43;;;;;;;1.17;1.05;;;20.00;47.10;;;;;;6208090;28;20014;-73
2021/12/30 02:14:43;;;;;;;1.17;1.00;;;20.00;47.10;;;;;;6219318;28;20439;-73
2021/12/30 02:17:47;;;;;;;1.25;0.95;;;20.00;47.10;;;;;;6221926;28;20069;-73
2021/12/30 02:20:52;;;;;;;1.13;0.87;;;20.00;47.10;;;;;;6222155;28;20124;-73
2021/12/30 02:23:52;;;;;;;0.80;0.80;;;20.00;47.10;;;;;;6222658;28;20409;-73
2021/12/30 02:26:53;;;;;;;1.02;0.80;;;20.00;47.10;;;;;;6222108;28;20030;-73
2021/12/30 02:29:53;;;;;;;0.98;0.90;;;20.00;47.10;;;;;;6221821;28;20237;-73
2021/12/30 02:32:54;;;;;;;1.15;0.70;;;20.00;47.10;;;;;;6199703;28;20035;-73
2021/12/30 02:35:55;;;;;;;1.25;0.90;;;20.00;47.10;;;;;;6202977;28;20037;-73
2021/12/30 02:38:56;;;;;;;2.03;0.80;;;20.00;47.10;;;;;;6222422;28;20461;-73
2021/12/30 02:41:57;;;;;;;0.95;0.82;;;20.00;47.10;;;;;;6221953;28;20029;-73
2021/12/30 02:44:58;;;;;;;0.80;0.80;;;20.00;47.10;;;;;;6220426;28;20022;-73
2021/12/30 02:47:58;;;;;;;1.30;1.20;;;20.00;47.10;;;;;;6221962;28;20421;-73
2021/12/30 02:51:01;;;;;;;0.93;0.85;;;20.00;47.10;;;;;;6221924;28;20060;-73
2021/12/30 02:54:04;;;;;;;0.98;0.93;;;20.00;47.20;;;;;;6218387;28;20446;-73
2021/12/30 02:57:04;;;;;;;1.50;1.08;;;20.00;47.20;;;;;;6221551;28;20030;-73
2021/12/30 03:00:08;;;;;;;1.02;0.90;;;20.00;47.20;;;;;;6221415;28;20037;-73
2021/12/30 03:03:16;;;;;;;0.63;0.60;;;20.00;47.10;;;;;;6221376;28;20112;-73
2021/12/30 03:06:17;;;;;;;1.10;1.00;;;20.00;47.10;;;;;;6212189;28;20073;-73
2021/12/30 03:09:18;;;;;;;0.80;0.70;;;20.00;47.10;;;;;;6197274;28;20026;-73
2021/12/30 03:12:18;;;;;;;1.25;0.90;;;20.00;47.10;;;;;;6210262;28;20033;-73
2021/12/30 03:15:19;;;;;;;1.60;0.85;;;20.00;47.10;;;;;;6221203;28;20700;-73
2021/12/30 03:18:20;;;;;;;1.15;0.80;;;20.00;47.20;;;;;;6220942;28;20022;-73
2021/12/30 03:21:22;;;;;;;0.90;0.80;;;20.00;47.10;;;;;;6208786;28;20022;-73
2021/12/30 03:24:23;;;;;;;0.88;0.80;;;20.00;47.10;;;;;;6220837;28;20412;-73
2021/12/30 03:27:23;;;;;;;0.90;0.70;;;20.00;47.20;;;;;;6220751;28;20025;-73
2021/12/30 03:30:24;;;;;;;0.85;0.85;;;20.00;47.20;;;;;;6217595;28;20376;-73
2021/12/30 03:33:27;;;;;;;1.25;0.88;;;20.00;47.20;;;;;;6195810;28;20501;-73
2021/12/30 03:36:28;;;;;;;1.13;0.85;;;20.00;47.20;;;;;;6210560;28;20033;-73
2021/12/30 03:39:28;;;;;;;0.63;0.63;;;20.00;47.20;;;;;;6220916;28;20381;-73
2021/12/30 03:42:29;;;;;;;1.15;0.88;;;20.00;47.20;;;;;;6220634;28;20274;-73
2021/12/30 03:45:30;;;;;;;1.45;1.02;;;20.00;47.10;;;;;;6220662;28;20030;-71
2021/12/30 03:48:34;;;;;;;0.90;0.70;;;20.00;47.20;;;;;;6220551;28;20149;-71
2021/12/30 03:51:38;;;;;;;1.00;0.73;;;20.00;47.20;;;;;;6220519;28;20029;-73
2021/12/30 03:54:39;;;;;;;0.88;0.75;;;20.00;47.20;;;;;;6205650;28;20070;-73
2021/12/30 03:57:40;;;;;;;1.23;0.88;;;20.00;47.20;;;;;;6217191;28;20046;-73
2021/12/30 04:00:40;;;;;;;1.15;0.90;;;20.00;47.20;;;;;;6219859;28;20477;-73
2021/12/30 04:03:41;;;;;;;1.20;1.10;;;20.00;47.20;;;;;;6219578;28;20049;-73
2021/12/30 04:06:42;;;;;;;0.90;0.80;;;20.00;47.20;;;;;;6207432;28;20081;-74
2021/12/30 04:09:42;;;;;;;0.90;0.60;;;20.00;47.20;;;;;;6195900;28;20038;-73
2021/12/30 04:12:45;;;;;;;0.60;0.60;;;20.00;47.20;;;;;;6213177;28;20065;-73
2021/12/30 04:15:46;;;;;;;0.80;0.80;;;20.00;47.20;;;;;;6216599;28;20026;-72
2021/12/30 04:18:48;;;;;;;1.00;0.90;;;20.00;47.20;;;;;;6220375;28;20069;-72
2021/12/30 04:21:53;;;;;;;0.98;0.70;;;20.00;47.20;;;;;;6219550;28;20504;-73
2021/12/30 04:24:54;;;;;;;1.02;0.75;;;20.00;47.20;;;;;;6217398;28;20049;-73
2021/12/30 04:27:54;;;;;;;0.95;0.63;;;20.00;47.20;;;;;;6216297;28;20122;-73
2021/12/30 04:30:55;;;;;;;1.05;0.85;;;20.00;47.20;;;;;;6212751;28;20072;-73
2021/12/30 04:33:56;;;;;;;0.88;0.70;;;20.00;47.20;;;;;;6195028;28;20064;-73
2021/12/30 04:36:59;;;;;;;0.88;0.88;;;20.00;47.20;;;;;;6213426;28;20061;-73
2021/12/30 04:40:01;;;;;;;0.75;0.60;;;20.00;47.20;;;;;;6216247;28;20033;-73
2021/12/30 04:43:02;;;;;;;0.65;0.50;;;20.00;47.20;;;;;;6219505;28;20691;-73
2021/12/30 04:46:03;;;;;;;0.80;0.70;;;20.00;47.30;;;;;;6217618;28;20030;-73
2021/12/30 04:49:03;;;;;;;0.98;0.80;;;20.00;47.30;;;;;;6219293;28;20018;-73
2021/12/30 04:52:04;;;;;;;1.05;0.70;;;20.00;47.20;;;;;;6218720;28;20030;-73
2021/12/30 04:55:06;;;;;;;1.85;0.70;;;20.00;47.20;;;;;;6218981;28;20049;-73
2021/12/30 04:58:07;;;;;;;0.95;0.70;;;20.00;47.30;;;;;;6219172;28;20111;-73
2021/12/30 05:01:07;;;;;;;0.80;0.70;;;20.00;47.20;;;;;;6218687;28;20504;-73
2021/12/30 05:04:08;;;;;;;1.10;0.68;;;20.00;47.20;;;;;;6219456;28;20022;-73
2021/12/30 05:07:08;;;;;;;1.42;0.90;;;20.00;47.30;;;;;;6202968;28;20037;-73
2021/12/30 05:10:09;;;;;;;1.10;0.60;;;20.00;47.20;;;;;;6195026;28;20405;-73
2021/12/30 05:13:10;;;;;;;1.17;0.60;;;20.00;47.30;;;;;;6214706;28;20064;-73
2021/12/30 05:16:10;;;;;;;0.70;0.70;;;20.00;47.20;;;;;;6219463;28;20030;-73
2021/12/30 05:19:11;;;;;;;0.88;0.68;;;20.00;47.30;;;;;;6219194;28;20124;-73
2021/12/30 05:22:12;;;;;;;1.02;0.70;;;20.00;47.30;;;;;;6206302;28;20018;-73
2021/12/30 05:25:15;;;;;;;0.60;0.50;;;20.00;47.30;;;;;;6218841;28;20473;-73
2021/12/30 05:28:15;;;;;;;0.93;0.70;;;20.00;47.30;;;;;;6218795;28;20313;-73
2021/12/30 05:31:16;;;;;;;0.85;0.60;;;20.00;47.30;;;;;;6209081;28;20105;-73
2021/12/30 05:34:16;;;;;;;0.75;0.60;;;20.00;47.30;;;;;;6194279;28;20046;-73
2021/12/30 05:37:17;;;;;;;1.02;0.77;;;20.00;47.30;;;;;;6212387;28;20381;-73
2021/12/30 05:40:20;;;;;;;0.82;0.70;;;20.00;47.30;;;;;;6218944;28;20053;-73
2021/12/30 05:43:21;;;;;;;0.90;0.68;;;20.00;47.30;;;;;;6218685;28;20034;-72
2021/12/30 05:46:21;;;;;;;1.30;0.70;;;20.00;47.20;;;;;;6215410;28;20527;-72
2021/12/30 05:49:22;;;;;;;0.73;0.60;;;20.00;47.30;;;;;;6194396;28;20035;-72
2021/12/30 05:52:22;;;;;;;0.90;0.65;;;20.00;47.30;;;;;;6210568;28;20065;-72
2021/12/30 05:55:23;;;;;;;1.13;0.90;;;20.00;47.20;;;;;;6187968;28;20377;-72
2021/12/30 05:58:24;;;;;;;1.20;0.80;;;20.00;47.30;;;;;;6223304;28;20030;-73
2021/12/30 06:01:25;;;;;;;1.50;0.73;;;20.00;47.30;;;;;;6211481;28;20121;-72
2021/12/30 06:04:25;;;;;;;0.50;0.50;;;20.00;47.20;;;;;;6174741;28;20118;-72
2021/12/30 06:07:26;;;;;;;1.27;0.77;;;20.00;47.20;;;;;;6192478;28;20072;-72
2021/12/30 06:10:27;;;;;;;1.00;0.70;;;20.00;47.30;;;;;;6197451;28;20117;-73
2021/12/30 06:13:27;;;;;;;0.60;0.52;;;20.00;47.30;;;;;;6219076;28;20037;-72
2021/12/30 06:16:28;;;;;;;1.33;0.77;;;20.00;47.20;;;;;;6219358;28;20022;-72
2021/12/30 06:19:28;;;;;;;0.73;0.68;;;20.00;47.30;;;;;;6222546;28;20113;-72
2021/12/30 06:22:29;;;;;;;0.85;0.70;;;20.00;47.30;;;;;;6222365;28;20030;-73
2021/12/30 06:25:29;;;;;;;0.70;0.60;;;20.00;47.30;;;;;;6222357;28;20061;-73
2021/12/30 06:28:30;;;;;;;0.80;0.70;;;20.00;47.30;;;;;;6222355;28;20389;-73
2021/12/30 06:31:30;;;;;;;0.95;0.75;;;20.00;47.30;;;;;;6210697;28;20543;-73
2021/12/30 06:34:31;;;;;;;0.65;0.60;;;20.00;47.40;;;;;;6184065;28;20097;-73
2021/12/30 06:37:31;;;;;;;0.73;0.60;;;20.00;47.40;;;;;;6199235;28;20042;-73
2021/12/30 06:40:32;;;;;;;0.93;0.70;;;20.00;47.40;;;;;;6207004;28;20034;-73
2021/12/30 06:43:33;;;;;;;0.90;0.70;;;20.00;47.40;;;;;;6209443;28;20477;-73
2021/12/30 06:46:34;;;;;;;1.20;0.70;;;20.10;47.50;;;;;;6199130;28;20077;-73
2021/12/30 06:49:37;;;;;;;0.40;0.40;;;20.10;47.50;;;;;;6197629;28;20057;-73
2021/12/30 06:52:37;;;;;;;0.80;0.60;;;20.10;47.50;;;;;;6199278;28;20031;-73
2021/12/30 06:55:39;;;;;;;0.80;0.68;;;20.10;47.40;;;;;;6209191;28;20044;-72
2021/12/30 06:58:41;;;;;;;1.05;0.60;;;20.10;47.40;;;;;;6196116;28;20432;-71
2021/12/30 07:01:43;;;;;;;1.35;0.60;;;20.10;47.50;;;;;;6198399;28;20038;-72
2021/12/30 07:04:44;;;;;;;1.27;0.80;;;20.10;47.50;;;;;;6196457;28;20058;-73
2021/12/30 07:07:44;;;;;;;1.02;0.50;;;20.10;47.50;;;;;;6212897;28;20033;-72
2021/12/30 07:10:45;;;;;;;1.23;0.70;;;20.10;47.50;;;;;;6210136;28;20029;-73
2021/12/30 07:13:45;;;;;;;0.68;0.55;;;20.10;47.50;;;;;;6221955;28;20073;-72
2021/12/30 07:16:46;;;;;;;1.15;0.70;;;20.10;47.60;;;;;;6221788;28;20029;-72
2021/12/30 07:19:46;;;;;;;1.50;0.63;;;20.10;47.50;;;;;;6222439;28;20109;-74
2021/12/30 07:22:47;;;;;;;1.10;0.60;;;20.10;47.50;;;;;;6216417;28;20034;-73
2021/12/30 07:25:47;;;;;;;0.80;0.70;;;20.10;47.50;;;;;;6221509;28;20097;-73
2021/12/30 07:28:48;;;;;;;1.30;0.70;;;20.10;47.50;;;;;;6207455;28;20030;-72
2021/12/30 07:31:49;;;;;;;1.10;0.70;;;20.10;47.50;;;;;;6206086;28;20022;-72
2021/12/30 07:34:49;;;;;;;3.35;0.80;;;20.10;47.50;;;;;;6190604;28;20089;-73
2021/12/30 07:37:50;;;;;;;1.95;0.77;;;20.10;47.50;;;;;;6221151;28;20393;-72
2021/12/30 07:40:51;;;;;;;0.77;0.60;;;20.10;47.50;;;;;;6218553;28;20026;-72
2021/12/30 07:43:51;;;;;;;2.33;0.90;;;20.10;47.60;;;;;;6221142;28;20037;-72
2021/12/30 07:46:52;;;;;;;1.45;0.80;;;20.10;47.60;;;;;;6220732;28;20033;-72
2021/12/30 07:49:52;;;;;;;3.78;0.70;;;20.10;47.60;;;;;;6221254;28;20052;-72
2021/12/30 07:52:53;;;;;;;1.42;0.80;;;20.10;47.60;;;;;;6221228;28;20499;-72
2021/12/30 07:55:54;;;;;;;2.92;0.88;;;20.10;47.60;;;;;;6221525;28;20132;-72
2021/12/30 07:58:55;;;;;;;2.00;0.80;;;20.10;47.60;;;;;;6222185;28;20469;-72
2021/12/30 08:01:56;;;;;;;1.08;0.68;;;20.10;47.60;;;;;;6221868;28;20056;-72
2021/12/30 08:04:56;;;;;;;1.85;0.65;;;20.10;47.70;;;;;;6221996;28;20052;-72
2021/12/30 08:07:57;;;;;;;1.35;0.70;;;20.10;47.70;;;;;;6221952;28;20029;-72
2021/12/30 08:10:58;;;;;;;1.77;0.90;;;20.10;47.70;;;;;;6221945;28;20042;-72
2021/12/30 08:14:01;;;;;;;1.50;0.70;;;20.10;47.70;;;;;;6222081;28;20037;-72
2021/12/30 08:17:02;;;;;;;4.57;0.93;;;20.10;47.70;;;;;;6221297;28;20112;-72
2021/12/30 08:20:04;;;;;;;1.42;0.85;;;20.10;47.70;;;;;;6215889;28;20026;-72
2021/12/30 08:23:05;;;;;;;1.48;0.70;;;20.10;47.70;;;;;;6213335;28;20061;-72
2021/12/30 08:26:06;;;;;;;1.90;0.60;;;20.10;47.70;;;;;;6221669;28;20022;-72
2021/12/30 08:29:06;;;;;;;2.13;0.70;;;20.10;47.70;;;;;;6221542;28;20030;-72
2021/12/30 08:32:11;;;;;;;1.83;0.90;;;20.10;47.70;;;;;;6205229;28;20026;-72
2021/12/30 08:35:14;;;;;;;1.00;0.75;;;20.10;47.70;;;;;;6201073;28;20025;-72
2021/12/30 08:38:14;;;;;;;2.10;0.82;;;20.10;47.70;;;;;;6221994;28;20109;-72
2021/12/30 08:41:15;;;;;;;3.08;1.00;;;20.10;47.70;;;;;;6221361;28;20473;-72
2021/12/30 08:44:16;;;;;;;1.80;1.02;;;20.10;47.70;;;;;;6215695;28;20057;-72
2021/12/30 08:47:17;;;;;;;1.48;0.70;;;20.10;47.70;;;;;;6221317;28;20029;-72
2021/12/30 08:50:18;;;;;;;1.08;0.60;;;20.10;47.70;;;;;;6217783;28;20033;-72
2021/12/30 08:53:18;;;;;;;5.63;1.35;;;20.10;47.70;;;;;;6218378;28;20026;-72
2021/12/30 08:56:19;;;;;;;1.75;0.82;;;20.10;47.70;;;;;;6208877;28;20026;-72
2021/12/30 08:59:19;;;;;;;1.52;0.70;;;20.10;47.70;;;;;;6222261;28;20605;-72
2021/12/30 09:02:20;;;;;;;2.53;0.77;;;20.10;47.70;;;;;;6221461;28;20501;-71
2021/12/30 09:05:21;;;;;;;1.58;0.70;;;20.10;47.70;;;;;;6202879;28;20029;-72
2021/12/30 09:08:22;;;;;;;1.15;0.65;;;20.10;47.70;;;;;;6197979;28;20102;-72
2021/12/30 09:11:22;;;;;;;1.38;0.70;;;20.10;47.70;;;;;;6203483;28;20511;-71
2021/12/30 09:14:23;;;;;;;1.80;0.82;;;20.10;47.70;;;;;;6222463;28;20038;-71
2021/12/30 09:17:23;;;;;;;2.60;0.93;;;20.10;47.70;;;;;;6221010;28;20022;-72
2021/12/30 09:20:24;;;;;;;1.80;0.80;;;20.10;47.70;;;;;;6221869;28;20030;-72
2021/12/30 09:23:25;;;;;;;2.58;0.77;;;20.10;47.80;;;;;;6221926;28;20105;-71
2021/12/30 09:26:25;;;;;;;0.88;0.52;;;20.10;47.70;;;;;;6221879;28;20346;-71
2021/12/30 09:29:26;;;;;;;1.10;0.60;;;20.10;47.70;;;;;;6200397;28;20083;-72
2021/12/30 09:32:27;;;;;;;1.25;0.60;;;20.10;47.70;;;;;;6199826;28;20525;-71
2021/12/30 09:35:29;;;;;;;0.75;0.60;;;20.10;47.70;;;;;;6215306;28;20057;-72
2021/12/30 09:38:29;;;;;;;1.73;0.73;;;20.10;47.70;;;;;;6195868;28;20034;-73
2021/12/30 09:41:30;;;;;;;1.38;0.60;;;20.10;47.70;;;;;;6220595;28;20037;-72
2021/12/30 09:44:30;;;;;;;1.17;0.70;;;20.10;47.70;;;;;;6212935;28;20029;-72
2021/12/30 09:47:33;;;;;;;1.75;0.90;;;20.10;47.70;;;;;;6207145;28;20030;-72
2021/12/30 09:50:39;;;;;;;1.38;0.73;;;20.10;47.70;;;;;;6213373;28;20029;-74
2021/12/30 09:53:39;;;;;;;2.35;1.00;;;20.10;47.70;;;;;;6212232;28;20053;-72
2021/12/30 09:56:40;;;;;;;1.45;0.88;;;20.10;47.70;;;;;;6191883;28;20045;-72
2021/12/30 09:59:41;;;;;;;1.35;0.80;;;20.10;47.70;;;;;;6222853;28;20033;-72
2021/12/30 10:02:43;;;;;;;0.90;0.70;;;20.10;47.70;;;;;;6208487;28;20054;-72
2021/12/30 10:05:44;;;;;;;3.83;0.88;;;20.10;47.80;;;;;;6197611;28;20031;-72
2021/12/30 10:09:05;;;;;;;2.85;1.10;;;20.10;47.80;;;;;;6198367;28;20101;-72
2021/12/30 10:12:06;;;;;;;2.17;1.05;;;20.10;47.80;;;;;;6210052;28;20033;-74
2021/12/30 10:15:08;;;;;;;2.47;0.90;;;20.10;47.90;;;;;;6219769;28;20026;-72
2021/12/30 10:18:08;;;;;;;1.17;0.90;;;20.10;47.90;;;;;;6200756;28;20034;-72
2021/12/30 10:21:20;;;;;;;1.02;0.60;;;20.10;47.90;;;;;;6200814;28;20029;-72
2021/12/30 10:24:20;;;;;;;2.28;0.90;;;20.10;47.90;;;;;;6206895;28;20026;-72
2021/12/30 10:27:29;;;;;;;1.67;0.90;;;20.10;47.90;;;;;;6208911;28;20080;-72
2021/12/30 10:30:34;;;;;;;1.77;0.90;;;20.10;47.90;;;;;;6214532;28;20033;-72
2021/12/30 10:33:35;;;;;;;;;;;20.10;47.80;;;;;;6187604;28;20057;-72
2021/12/30 10:36:38;;;;;;;2.83;0.80;;;20.10;47.90;;;;;;6217620;28;19905;-72
2021/12/30 10:39:41;;;;;;;2.70;0.95;;;20.10;47.90;;;;;;6216932;28;20603;-72
2021/12/30 10:42:42;;;;;;;1.25;0.80;;;20.10;47.90;;;;;;6179351;28;20237;-72
2021/12/30 10:45:43;;;;;;;1.55;0.82;;;20.10;47.90;;;;;;6220082;28;20030;-72
2021/12/30 10:48:58;;;;;;;2.63;1.00;;;20.10;47.90;;;;;;6213624;28;20436;-72
2021/12/30 10:51:59;;;;;;;2.10;0.80;;;20.10;47.90;;;;;;6200941;28;20034;-72
2021/12/30 10:55:10;;;;;;;2.47;1.23;;;20.20;47.90;;;;;;6212856;28;20455;-72
2021/12/30 10:58:29;;;;;;;1.65;0.95;;;20.20;47.90;;;;;;6197502;28;20396;-72
2021/12/30 11:01:35;;;;;;;1.42;0.80;;;20.20;48.00;;;;;;6217330;28;20108;-72
2021/12/30 11:04:45;;;;;;;1.77;0.82;;;20.20;48.00;;;;;;6206561;28;20150;-72
2021/12/30 11:07:49;;;;;;;2.78;1.00;;;20.20;48.00;;;;;;6195048;28;20069;-72
2021/12/30 11:10:49;;;;;;;2.03;0.82;;;20.20;48.00;;;;;;6206368;28;20018;-71
2021/12/30 11:13:57;;;;;;;2.25;0.70;;;20.20;48.00;;;;;;6217891;28;20266;-72
2021/12/30 11:17:16;;;;;;;4.38;0.90;;;20.20;48.00;;;;;;6209528;28;20516;-72
2021/12/30 11:20:20;;;;;;;3.10;1.45;;;20.20;48.00;;;;;;6192411;28;20026;-72
2021/12/30 11:23:21;;;;;;;1.63;1.00;;;20.20;48.20;;;;;;6207255;28;20031;-72
2021/12/30 11:26:21;;;;;;;2.10;0.90;;;20.20;47.90;;;;;;6208290;28;20036;-74
2021/12/30 11:29:23;;;;;;;2.35;1.05;;;20.20;47.80;;;;;;6216325;28;20034;-72
2021/12/30 11:32:26;;;;;;;1.90;0.88;;;20.30;47.90;;;;;;6211218;28;20030;-72
2021/12/30 11:35:28;;;;;;;1.83;0.85;;;20.30;47.90;;;;;;6218977;28;20034;-72
2021/12/30 11:38:28;;;;;;;2.83;1.02;;;20.30;47.80;;;;;;6219478;28;20030;-72
2021/12/30 11:41:32;;;;;;;2.47;0.98;;;20.30;48.10;;;;;;6212588;28;20117;-72
2021/12/30 11:44:36;;;;;;;2.55;0.80;;;20.40;48.00;;;;;;6208841;28;20054;-72
2021/12/30 11:47:40;;;;;;;2.40;1.00;;;20.40;48.00;;;;;;6214401;28;20397;-72
2021/12/30 11:50:41;;;;;;;4.53;0.83;;;20.40;48.00;;;;;;6205919;28;20030;-72
2021/12/30 11:53:41;;;;;;;1.83;0.88;;;20.40;47.90;;;;;;6213296;28;20391;-72
2021/12/30 11:56:42;;;;;;;7.43;0.98;;;20.40;47.80;;;;;;6219311;28;20061;-72
2021/12/30 11:59:42;;;;;;;1.38;0.82;;;20.40;47.80;;;;;;6209598;28;20191;-72
2021/12/30 12:02:43;;;;;;;1.67;0.75;;;20.50;47.90;;;;;;6167718;28;1311455;-72
2021/12/30 12:05:44;;;;;;;1.73;0.85;;;20.50;47.90;;;;;;6194962;28;20022;-72
2021/12/30 12:08:46;;;;;;;1.08;0.77;;;20.50;47.90;;;;;;6192363;28;20367;-72
2021/12/30 12:12:01;;;;;;;1.55;0.80;;;20.50;47.90;;;;;;6214694;28;20041;-73
2021/12/30 12:15:03;;;;;;;;;;;20.50;47.90;;;;;;6211412;28;20026;-72
2021/12/30 12:18:12;;;;;;;1.88;1.00;;;20.50;47.90;;;;;;6218793;28;19920;-72
2021/12/30 12:21:12;;;;;;;1.42;0.80;;;20.50;47.90;;;;;;6192665;28;20026;-72
2021/12/30 12:24:22;;;;;;;1.45;0.93;;;20.50;47.90;;;;;;6204293;28;20022;-72
2021/12/30 12:27:22;;;;;;;2.13;0.85;;;20.50;47.90;;;;;;6217802;28;20460;-72
2021/12/30 12:30:27;;;;;;;1.88;0.70;;;20.50;47.90;;;;;;6207026;28;20026;-72
2021/12/30 12:33:32;;;;;;;1.33;0.70;;;20.50;47.90;;;;;;6207040;28;20129;-72
2021/12/30 12:36:33;;;;;;;1.35;0.98;;;20.50;47.90;;;;;;6208053;28;20033;-72
2021/12/30 12:39:38;;;;;;;1.52;0.90;;;20.50;47.90;;;;;;6210173;28;20026;-72
2021/12/30 12:42:53;;;;;;;2.35;0.90;;;20.60;48.00;;;;;;6213867;28;20027;-73
2021/12/30 12:45:56;;;;;;;;;;;20.60;48.20;;;;;;6213094;28;20102;-73
2021/12/30 12:48:56;;;;;;;3.25;0.80;;;20.60;48.10;;;;;;6203809;28;19909;-74
2021/12/30 12:51:57;;;;;;;1.10;0.73;;;20.60;48.00;;;;;;6216045;28;20459;-73
2021/12/30 12:54:57;;;;;;;1.90;0.85;;;20.50;48.00;;;;;;6210408;28;20591;-73
2021/12/30 12:58:06;;;;;;;2.35;0.90;;;20.50;48.10;;;;;;6193887;28;20033;-73
2021/12/30 13:01:09;;;;;;;1.15;0.85;;;20.40;48.10;;;;;;6211163;28;20066;-72
2021/12/30 13:04:11;;;;;;;1.40;0.77;;;20.40;48.20;;;;;;6195055;28;20026;-75
2021/12/30 13:07:17;;;;;;;1.90;1.00;;;20.40;48.20;;;;;;6219432;28;20064;-73
2021/12/30 13:10:19;;;;;;;1.50;0.82;;;20.40;48.20;;;;;;6198033;28;20113;-73
2021/12/30 13:13:41;;;;;;;2.70;1.10;;;20.40;48.20;;;;;;6214219;28;20053;-71
2021/12/30 13:16:42;;;;;;;6.57;1.00;;;20.40;48.40;;;;;;6215481;28;20026;-73
2021/12/30 13:19:48;;;;;;;5.32;1.30;;;20.40;48.30;;;;;;6208437;28;20141;-74
2021/12/30 13:22:49;;;;;;;3.92;1.13;;;20.40;48.30;;;;;;6206708;28;20101;-73
2021/12/30 13:26:03;;;;;;;2.63;1.10;;;20.40;48.20;;;;;;6206777;28;20036;-73
2021/12/30 13:29:04;;;;;;;4.22;1.30;;;20.40;48.20;;;;;;6213728;28;20101;-73
2021/12/30 13:32:09;;;;;;;6.53;1.10;;;20.40;48.30;;;;;;6202247;28;20197;-73
2021/12/30 13:35:13;;;;;;;3.40;1.25;;;20.40;48.30;;;;;;6211660;28;20038;-73
2021/12/30 13:38:13;;;;;;;3.05;1.33;;;20.40;48.40;;;;;;6217723;28;20042;-73
2021/12/30 13:41:17;;;;;;;3.55;1.20;;;20.40;48.20;;;;;;6212036;28;20040;-73
2021/12/30 13:44:22;;;;;;;3.55;1.00;;;20.40;48.30;;;;;;6218768;28;20161;-73
2021/12/30 13:47:35;;;;;;;1.83;0.88;;;20.40;48.30;;;;;;6214125;28;20025;-73
2021/12/30 13:50:42;;;;;;;2.17;0.93;;;20.40;48.30;;;;;;6217744;28;20048;-73
2021/12/30 13:53:45;;;;;;;2.50;1.10;;;20.40;48.40;;;;;;6206517;28;20101;-73
2021/12/30 13:56:45;;;;;;;4.82;1.38;;;20.50;48.30;;;;;;6214486;28;20026;-73
2021/12/30 13:59:46;;;;;;;5.07;1.20;;;20.50;48.20;;;;;;6205162;28;20033;-73
2021/12/30 14:02:59;;;;;;;2.78;1.20;;;20.50;48.30;;;;;;6200396;28;20104;-73
2021/12/30 14:06:12;;;;;;;4.85;0.90;;;20.50;48.30;;;;;;6185777;28;20106;-73
2021/12/30 14:09:15;;;;;;;1.90;0.88;;;20.50;48.30;;;;;;6198778;28;20030;-73
2021/12/30 14:12:16;;;;;;;2.88;0.98;;;20.50;48.60;;;;;;6204102;28;20022;-73
2021/12/30 14:15:20;;;;;;;2.75;1.17;;;20.50;48.50;;;;;;6213943;28;20153;-72
2021/12/30 14:18:21;;;;;;;2.13;0.85;;;20.50;48.40;;;;;;6222471;28;20037;-74
2021/12/30 14:21:24;;;;;;;3.92;0.90;;;20.60;48.30;;;;;;6221676;28;20075;-74
2021/12/30 14:24:27;;;;;;;1.42;0.80;;;20.50;48.40;;;;;;6204789;28;20022;-74
2021/12/30 14:27:32;;;;;;;1.27;0.70;;;20.50;48.40;;;;;;6211429;28;20088;-74
2021/12/30 14:30:36;;;;;;;1.67;0.68;;;20.50;48.40;;;;;;6216674;28;20105;-74
2021/12/30 14:33:37;;;;;;;3.33;0.82;;;20.50;49.40;;;;;;6213657;28;20037;-73
2021/12/30 14:36:55;;;;;;;37.78;4.55;;;20.50;48.50;;;;;;6221196;28;20149;-74
2021/12/30 14:39:58;;;;;;;7.18;1.20;;;20.50;48.90;;;;;;6217084;28;20032;-74
2021/12/30 14:43:04;;;;;;;4.13;1.20;;;20.50;48.60;;;;;;6204476;28;20022;-74
2021/12/30 14:46:12;;;;;;;4.50;1.10;;;20.50;48.60;;;;;;6222012;28;20037;-75
2021/12/30 14:49:18;;;;;;;3.08;1.25;;;20.50;48.60;;;;;;6213440;28;20038;-73
2021/12/30 14:52:25;;;;;;;8.35;1.10;;;20.40;48.60;;;;;;6218412;28;20469;-74
2021/12/30 14:55:27;;;;;;;4.35;1.50;;;20.40;48.60;;;;;;6212341;28;20115;-73
2021/12/30 14:58:28;;;;;;;6.85;0.90;;;20.40;48.70;;;;;;6217715;28;20176;-74
2021/12/30 15:01:28;;;;;;;4.68;0.98;;;20.40;48.70;;;;;;6216425;28;20171;-73
2021/12/30 15:04:29;;;;;;;4.43;1.00;;;20.40;48.70;;;;;;6211344;28;20087;-77
2021/12/30 15:07:29;;;;;;;20.67;1.20;;;20.50;49.80;;;;;;6221572;28;20030;-77
2021/12/30 15:10:30;;;;;;;7.00;1.10;;;20.50;49.50;;;;;;6209205;28;20377;-76
2021/12/30 15:13:31;;;;;;;7.57;0.90;;;20.60;49.30;;;;;;6198441;28;20045;-73
2021/12/30 15:16:32;;;;;;;2.92;0.93;;;20.70;49.30;;;;;;6207118;28;20034;-74
2021/12/30 15:19:32;;;;;;;2.78;0.95;;;20.80;49.00;;;;;;6199388;28;20504;-70
2021/12/30 15:22:33;;;;;;;6.80;1.10;;;20.90;48.80;;;;;;6217920;28;20026;-74
2021/12/30 15:25:34;;;;;;;2.83;1.00;;;20.90;48.70;;;;;;6210505;28;20077;-73
2021/12/30 15:28:35;;;;;;;2.67;1.02;;;20.90;49.20;;;;;;6218884;28;20026;-73
2021/12/30 15:31:35;;;;;;;4.75;1.10;;;21.00;49.20;;;;;;6205293;28;20022;-73
2021/12/30 15:34:36;;;;;;;5.63;0.90;;;21.10;49.00;;;;;;6210660;28;20550;-75
2021/12/30 15:37:37;;;;;;;6.13;1.27;;;21.10;48.80;;;;;;6219615;28;20453;-75
2021/12/30 15:40:38;;;;;;;7.90;1.77;;;21.10;49.20;;;;;;6219511;28;20088;-72
2021/12/30 15:43:38;;;;;;;9.23;1.40;;;21.20;49.10;;;;;;6220176;28;20034;-71
2021/12/30 15:46:39;;;;;;;5.85;1.95;;;21.20;48.80;;;;;;6219083;28;20503;-73
2021/12/30 15:49:39;;;;;;;8.13;1.77;;;21.20;48.70;;;;;;6210500;28;20473;-74